Pagrindinis puslapis
METAR-TAF:

METAR-TAF

Oro uostai :

Koliganek, Aliaska, Jungtinės Amerikos Valstijos

platuma: 59-43-36N, ilguma: 157-15-34W, Aukštis: 82 m

Dabartinis oras

Ataskaita buvo paskelbta 38 minutes, ne 20:56 UTC
Vėjas 18 kt iš Rytų/Šiaurės Rytų su gūsio iki 23 kt
Temperatūra 13°C
Drėgmė 67%
Slėgis 989 hPa
Matomumas: 11.3 km
Su prošvaistėmis ne aukštis 4400 ft
Apsiniaukę ne aukštis 5500 ft

METAR: PAJZ 302056Z AUTO 06018G23KT 7SM BKN044 OVC055 13/07 A2920 RMK AO2 SLP894 T01280072 58015 $

Laikas: 13:34 (21:34 UTC)


TAF: trūkstamas

Orai ataskaitas ir orų prognozės (METAR, TAF).

turimą stotys yra geltonos ir raudonos taškus žemėlapyje.

Perkelti pele per norėdami pamatyti stoties vardą.

Tada spustelėkite, norėdami matyti oro stebėjimo ir prognozės.

Norėdami pakeisti žemėlapį: spustelėkite ant žalios mygtukų su juodo kryžiaus žemyn,; žalią mygtuką su brūkšneliu, jei norite nutolinti; arba žalių rodyklių gretimoms žemėlapius.


METAR-TAF: